createdAt,value
2018-12-14T00:00:58.884Z,66.44
2018-12-14T00:01:58.852Z,66.31
2018-12-14T00:02:59.039Z,66.32
2018-12-14T00:03:58.960Z,66.27
2018-12-14T00:04:59.001Z,66.33
2018-12-14T00:05:58.829Z,66.38
2018-12-14T00:06:58.832Z,66.52
2018-12-14T00:07:58.885Z,66.63
2018-12-14T00:08:58.846Z,66.43
2018-12-14T00:09:58.836Z,66.38
2018-12-14T00:10:59.045Z,66.18
2018-12-14T00:11:59.031Z,65.95
2018-12-14T00:12:58.991Z,66.03
2018-12-14T00:13:59.053Z,66.26
2018-12-14T00:14:58.887Z,66.15
2018-12-14T00:15:59.027Z,66.01
2018-12-14T00:16:59.042Z,65.71
2018-12-14T00:17:59.095Z,65.91
2018-12-14T00:18:59.022Z,66.17
2018-12-14T00:19:58.878Z,66.05
2018-12-14T00:20:58.797Z,66.41
2018-12-14T00:21:58.887Z,66.38
2018-12-14T00:22:59.047Z,66.11
2018-12-14T00:23:58.805Z,66.54
2018-12-14T00:24:59.028Z,66.4
2018-12-14T00:25:58.907Z,66.2
2018-12-14T00:26:58.790Z,66.05
2018-12-14T00:27:58.878Z,65.97
2018-12-14T00:28:58.865Z,66.2
2018-12-14T00:29:58.974Z,66.25
2018-12-14T00:30:58.985Z,65.99
2018-12-14T00:31:58.855Z,66
2018-12-14T00:32:58.844Z,66.29
2018-12-14T00:33:59.001Z,66.34
2018-12-14T00:34:58.716Z,66.13
2018-12-14T00:35:58.949Z,66.2
2018-12-14T00:36:58.890Z,66.42
2018-12-14T00:37:58.998Z,66.36
2018-12-14T00:38:58.888Z,66.86
2018-12-14T00:39:59.014Z,66.81
2018-12-14T00:40:59.127Z,66.29
2018-12-14T00:41:59.174Z,66.45
2018-12-14T00:42:59.021Z,66.52
2018-12-14T00:43:58.781Z,66.68
2018-12-14T00:44:59.048Z,66.57
2018-12-14T00:45:58.841Z,66.7
2018-12-14T00:46:59.087Z,66.49
2018-12-14T00:47:58.824Z,66.43
2018-12-14T00:48:58.854Z,66.48
2018-12-14T00:49:58.984Z,66.76
2018-12-14T00:50:58.820Z,66.52
2018-12-14T00:51:58.996Z,66.63
2018-12-14T00:52:58.820Z,66.76
2018-12-14T00:53:58.866Z,66.76
2018-12-14T00:54:58.957Z,66.7
2018-12-14T00:55:59.056Z,66.84
2018-12-14T00:56:58.755Z,66.63
2018-12-14T00:57:58.886Z,66.77
2018-12-14T00:58:58.942Z,66.79
2018-12-14T00:59:58.938Z,66.73
2018-12-14T01:00:58.960Z,66.77
2018-12-14T01:01:59.066Z,66.28
2018-12-14T01:02:59.378Z,66.41
2018-12-14T01:03:58.829Z,66.56
2018-12-14T01:04:58.828Z,66.69
2018-12-14T01:05:59.031Z,66.67
2018-12-14T01:06:58.950Z,66.73
2018-12-14T01:07:59.172Z,66.39
2018-12-14T01:08:58.878Z,66.43
2018-12-14T01:09:58.898Z,66.57
2018-12-14T01:10:58.711Z,66.85
2018-12-14T01:11:59.031Z,67.03
2018-12-14T01:12:58.786Z,67
2018-12-14T01:13:58.777Z,66.92
2018-12-14T01:14:58.971Z,66.83
2018-12-14T01:15:58.737Z,66.97
2018-12-14T01:16:58.739Z,66.94
2018-12-14T01:17:58.940Z,67.38
2018-12-14T01:18:58.667Z,67.22
2018-12-14T01:19:59.573Z,67.3
2018-12-14T01:20:58.711Z,66.81
2018-12-14T01:21:58.721Z,66.58
2018-12-14T01:22:58.721Z,66.65
2018-12-14T01:23:58.827Z,66.9
2018-12-14T01:24:58.812Z,66.84
2018-12-14T01:25:58.797Z,66.93
2018-12-14T01:26:58.771Z,67.02
2018-12-14T01:27:58.961Z,66.97
2018-12-14T01:28:58.871Z,67.19
2018-12-14T01:29:58.906Z,67.12
2018-12-14T01:30:58.760Z,67.27
2018-12-14T01:31:58.912Z,67.23
2018-12-14T01:32:58.789Z,67.26
2018-12-14T01:33:58.766Z,67.3
2018-12-14T01:34:58.744Z,67.51
2018-12-14T01:35:59.023Z,67.52
2018-12-14T01:36:58.753Z,67.66
2018-12-14T01:37:58.791Z,67.8
2018-12-14T01:38:58.747Z,67.75
2018-12-14T01:39:58.770Z,67.54
2018-12-14T01:40:58.874Z,67.51
2018-12-14T01:42:05.309Z,67.34
2018-12-14T01:42:58.738Z,67.36
2018-12-14T01:43:58.836Z,67.41
2018-12-14T01:44:58.792Z,67.49
2018-12-14T01:45:58.726Z,67.56
2018-12-14T01:46:58.718Z,67.5
2018-12-14T01:47:58.690Z,67.55
2018-12-14T01:48:58.746Z,67.39
2018-12-14T01:49:58.720Z,67.61
2018-12-14T01:50:58.776Z,67.6
2018-12-14T01:51:58.700Z,67.45
2018-12-14T01:52:58.864Z,67.53
2018-12-14T01:53:58.735Z,67.83
2018-12-14T01:54:58.882Z,67.65
2018-12-14T01:55:58.759Z,67.61
2018-12-14T01:56:58.683Z,67.92
2018-12-14T01:57:58.723Z,68.06
2018-12-14T01:58:58.797Z,67.9
2018-12-14T01:59:58.739Z,67.96
2018-12-14T02:00:58.763Z,67.71
2018-12-14T02:01:58.912Z,67.94
2018-12-14T02:02:58.752Z,68.04
2018-12-14T02:03:58.723Z,68.07
2018-12-14T02:04:58.892Z,68.09
2018-12-14T02:05:59.441Z,67.95
2018-12-14T02:06:58.854Z,67.9
2018-12-14T02:07:58.758Z,67.89
2018-12-14T02:08:58.746Z,68.11
2018-12-14T02:09:58.671Z,68.13
2018-12-14T02:10:58.697Z,68.39
2018-12-14T02:11:58.630Z,68.15
2018-12-14T02:12:59.506Z,68
2018-12-14T02:13:58.794Z,67.93
2018-12-14T02:14:58.765Z,67.98
2018-12-14T02:15:58.850Z,67.76
2018-12-14T02:16:58.974Z,67.86
2018-12-14T02:17:58.966Z,68.08
2018-12-14T02:18:58.697Z,67.99
2018-12-14T02:19:58.638Z,68
2018-12-14T02:20:58.773Z,68.14
2018-12-14T02:21:58.725Z,68.34
2018-12-14T02:22:59.016Z,68.03
2018-12-14T02:23:58.930Z,67.97
2018-12-14T02:24:58.978Z,68
2018-12-14T02:25:58.864Z,68.06
2018-12-14T02:26:58.737Z,68.1
2018-12-14T02:27:58.773Z,68.21
2018-12-14T02:28:58.901Z,68.2
2018-12-14T02:29:58.873Z,68.21
2018-12-14T02:30:58.978Z,68.31
2018-12-14T02:31:58.824Z,68.21
2018-12-14T02:32:58.757Z,68.33
2018-12-14T02:33:59.055Z,68.32
2018-12-14T02:34:58.739Z,68.26
2018-12-14T02:35:58.738Z,68.19
2018-12-14T02:36:58.825Z,68.35
2018-12-14T02:37:58.630Z,68.16
2018-12-14T02:38:58.770Z,68.4
2018-12-14T02:39:58.725Z,68.5
2018-12-14T02:40:58.690Z,68.39
2018-12-14T02:41:58.703Z,67.96
2018-12-14T02:42:58.866Z,68.14
2018-12-14T02:43:58.683Z,67.98
2018-12-14T02:44:58.726Z,67.84
2018-12-14T02:45:58.758Z,67.84
2018-12-14T02:46:58.877Z,68.08
2018-12-14T02:47:58.829Z,68.09
2018-12-14T02:48:58.712Z,68.07
2018-12-14T02:49:58.753Z,68.24
2018-12-14T02:50:58.778Z,68.19
2018-12-14T02:51:58.765Z,68.2
2018-12-14T02:52:58.614Z,67.99
2018-12-14T02:53:58.712Z,68.19
2018-12-14T02:54:58.816Z,68.34
2018-12-14T02:55:58.775Z,68.37
2018-12-14T02:56:58.818Z,68.12
2018-12-14T02:57:58.636Z,67.87
2018-12-14T02:58:58.658Z,67.95
2018-12-14T02:59:58.639Z,68.05
2018-12-14T03:00:58.784Z,68.35
2018-12-14T03:01:58.654Z,68.35
2018-12-14T03:02:59.183Z,67.57
2018-12-14T03:03:58.801Z,67.22
2018-12-14T03:04:58.596Z,67.45
2018-12-14T03:05:59.363Z,67.36
2018-12-14T03:06:58.771Z,67.55
2018-12-14T03:07:58.572Z,67.71
2018-12-14T03:08:58.701Z,67.82
2018-12-14T03:09:58.694Z,67.97
2018-12-14T03:10:58.714Z,68.15
2018-12-14T03:11:58.563Z,67.92
2018-12-14T03:12:58.643Z,67.42
2018-12-14T03:13:58.610Z,67.23
2018-12-14T03:14:58.537Z,67.41
2018-12-14T03:15:58.611Z,67.46
2018-12-14T03:16:58.606Z,67.54
2018-12-14T03:17:58.542Z,67.67
2018-12-14T03:18:58.570Z,67.9
2018-12-14T03:19:58.560Z,67.99
2018-12-14T03:20:58.556Z,67.53
2018-12-14T03:21:58.580Z,67.64
2018-12-14T03:22:58.609Z,67.1
2018-12-14T03:23:58.583Z,67.26
2018-12-14T03:24:58.577Z,67.4
2018-12-14T03:25:58.559Z,67.34
2018-12-14T03:26:58.524Z,67.18
2018-12-14T03:27:58.624Z,67.48
2018-12-14T03:28:58.550Z,67.67
2018-12-14T03:29:58.572Z,67.63
2018-12-14T03:30:58.599Z,67.61
2018-12-14T03:31:58.981Z,67.32
2018-12-14T03:32:58.712Z,67.46
2018-12-14T03:33:58.769Z,67.25
2018-12-14T03:34:58.623Z,67.39
2018-12-14T03:35:58.504Z,67.23
2018-12-14T03:36:58.624Z,67.14
2018-12-14T03:37:58.738Z,67.36
2018-12-14T03:38:58.601Z,66.91
2018-12-14T03:39:58.790Z,66.69
2018-12-14T03:40:58.779Z,66.74
2018-12-14T03:41:58.744Z,66.73
2018-12-14T03:42:58.607Z,66.3
2018-12-14T03:43:58.510Z,66.6
2018-12-14T03:44:58.632Z,66.57
2018-12-14T03:45:58.543Z,66.8
2018-12-14T03:46:58.703Z,66.87
2018-12-14T03:47:58.552Z,67.12
2018-12-14T03:48:58.545Z,66.97
2018-12-14T03:49:58.643Z,67.23
2018-12-14T03:50:58.532Z,67.31
2018-12-14T03:51:58.557Z,67.31
2018-12-14T03:52:58.549Z,67.36
2018-12-14T03:53:58.460Z,67.51
2018-12-14T03:54:58.667Z,67.52
2018-12-14T03:55:58.629Z,67.64
2018-12-14T03:56:58.708Z,67.77
2018-12-14T03:57:58.679Z,67.75
2018-12-14T03:58:58.573Z,67.7
2018-12-14T03:59:58.590Z,67.91
2018-12-14T04:00:59.273Z,67.76
2018-12-14T04:01:58.566Z,67.82
2018-12-14T04:02:58.499Z,67.75
2018-12-14T04:03:58.517Z,67.98
2018-12-14T04:04:58.981Z,68.11
2018-12-14T04:05:58.546Z,68.05
2018-12-14T04:06:58.924Z,67.8
2018-12-14T04:07:58.493Z,67.8
2018-12-14T04:08:58.765Z,68.08
2018-12-14T04:09:58.537Z,68.24
2018-12-14T04:10:58.461Z,68.23
2018-12-14T04:11:58.692Z,68.29
2018-12-14T04:12:58.678Z,68.09
2018-12-14T04:13:58.451Z,68.14
2018-12-14T04:14:58.703Z,68.07
2018-12-14T04:15:58.432Z,68.29
2018-12-14T04:16:58.624Z,68.22
2018-12-14T04:17:58.538Z,68.43
2018-12-14T04:18:58.444Z,68.71
2018-12-14T04:19:58.509Z,68.35
2018-12-14T04:20:58.516Z,68.55
2018-12-14T04:21:58.543Z,68.59
2018-12-14T04:22:58.572Z,68.38
2018-12-14T04:23:58.604Z,68.78
2018-12-14T04:24:58.975Z,68.75
2018-12-14T04:25:58.651Z,68.37
2018-12-14T04:26:58.525Z,68.39
2018-12-14T04:27:58.529Z,68.41
2018-12-14T04:28:58.673Z,68.55
2018-12-14T04:29:58.676Z,68.79
2018-12-14T04:30:58.503Z,68.74
2018-12-14T04:31:59.237Z,68.83
2018-12-14T04:32:58.553Z,69.03
2018-12-14T04:33:58.626Z,68.8
2018-12-14T04:34:58.632Z,68.89
2018-12-14T04:35:58.621Z,68.57
2018-12-14T04:36:58.500Z,68.47
2018-12-14T04:37:58.631Z,68.46
2018-12-14T04:38:58.482Z,68.48
2018-12-14T04:39:58.425Z,68.46
2018-12-14T04:40:58.546Z,68.65
2018-12-14T04:41:58.485Z,68.82
2018-12-14T04:42:58.816Z,68.99
2018-12-14T04:43:58.608Z,68.69
2018-12-14T04:44:58.579Z,68.55
2018-12-14T04:45:58.814Z,68.74
2018-12-14T04:46:58.410Z,69.01
2018-12-14T04:47:58.778Z,68.72
2018-12-14T04:48:58.421Z,68.77
2018-12-14T04:49:58.566Z,68.8
2018-12-14T04:50:58.693Z,68.79
2018-12-14T04:51:58.406Z,68.87
2018-12-14T04:52:58.351Z,68.86
2018-12-14T04:53:58.492Z,68.95
2018-12-14T04:54:58.571Z,68.95
2018-12-14T04:55:58.419Z,68.92
2018-12-14T04:56:58.636Z,68.86
2018-12-14T04:57:58.484Z,68.8
2018-12-14T04:58:58.391Z,69.12
2018-12-14T04:59:58.385Z,68.96
2018-12-14T05:00:58.517Z,69.25
2018-12-14T05:01:58.565Z,69.03
2018-12-14T05:02:58.423Z,68.96
2018-12-14T05:03:58.432Z,68.96
2018-12-14T05:04:58.403Z,69.12
2018-12-14T05:05:59.167Z,69.24
2018-12-14T05:06:58.508Z,69.19
2018-12-14T05:07:58.388Z,69.2
2018-12-14T05:08:58.386Z,69.12
2018-12-14T05:09:58.406Z,69.47
2018-12-14T05:10:58.516Z,69.13
2018-12-14T05:11:58.551Z,68.85
2018-12-14T05:12:58.503Z,68.7
2018-12-14T05:13:58.728Z,68.38
2018-12-14T05:14:58.531Z,68.2
2018-12-14T05:15:58.411Z,68.53
2018-12-14T05:16:58.829Z,68.54
2018-12-14T05:17:58.443Z,68.46
2018-12-14T05:18:58.490Z,68.15
2018-12-14T05:19:58.493Z,68.06
2018-12-14T05:20:58.619Z,68.13
2018-12-14T05:21:58.479Z,68.09
2018-12-14T05:22:58.343Z,68.45
2018-12-14T05:23:58.346Z,68.39
2018-12-14T05:24:58.679Z,68.19
2018-12-14T05:25:58.476Z,68.22
2018-12-14T05:26:58.378Z,68.49
2018-12-14T05:27:58.503Z,68.22
2018-12-14T05:28:58.364Z,68.4
2018-12-14T05:29:58.406Z,68.38
2018-12-14T05:30:58.494Z,68.09
2018-12-14T05:31:58.377Z,68
2018-12-14T05:32:58.506Z,68.17
2018-12-14T05:33:58.532Z,68.46
2018-12-14T05:34:58.493Z,68.49
2018-12-14T05:35:58.370Z,68.26
2018-12-14T05:36:58.581Z,68.39
2018-12-14T05:38:04.259Z,68.48
2018-12-14T05:38:58.473Z,68.54
2018-12-14T05:39:58.408Z,68.35
2018-12-14T05:40:59.338Z,68.29
2018-12-14T05:41:58.584Z,67.97
2018-12-14T05:43:03.573Z,68.28
2018-12-14T05:43:58.349Z,68.45
2018-12-14T05:44:58.431Z,68.49
2018-12-14T05:45:58.528Z,68.87
2018-12-14T05:46:58.662Z,68.57
2018-12-14T05:47:58.388Z,68.58
2018-12-14T05:48:58.327Z,68.69
2018-12-14T05:49:58.446Z,68.48
2018-12-14T05:50:58.867Z,68.03
2018-12-14T05:51:58.361Z,68.19
2018-12-14T05:52:58.332Z,68.15
2018-12-14T05:53:58.647Z,68.13
2018-12-14T05:54:58.441Z,68.32
2018-12-14T05:55:58.620Z,68.28
2018-12-14T05:56:58.338Z,68.36
2018-12-14T05:57:58.429Z,68.29
2018-12-14T05:58:58.483Z,67.82
2018-12-14T05:59:58.386Z,68.03
2018-12-14T06:00:58.499Z,68.1
2018-12-14T06:01:58.370Z,68.14
2018-12-14T06:02:58.391Z,68.36
2018-12-14T06:03:58.404Z,68.22
2018-12-14T06:04:58.732Z,68.53
2018-12-14T06:05:58.474Z,68.6
2018-12-14T06:06:58.491Z,68.48
2018-12-14T06:07:58.477Z,68.46
2018-12-14T06:08:58.625Z,68.42
2018-12-14T06:09:58.533Z,67.97
2018-12-14T06:10:58.622Z,68.02
2018-12-14T06:11:59.100Z,68.23
2018-12-14T06:12:59.110Z,68.28
2018-12-14T06:13:59.104Z,68.28
2018-12-14T06:14:58.511Z,68.5
2018-12-14T06:15:58.603Z,68.09
2018-12-14T06:16:58.568Z,68.36
2018-12-14T06:17:58.369Z,68.2
2018-12-14T06:18:58.476Z,68.16
2018-12-14T06:19:58.308Z,67.85
2018-12-14T06:20:58.644Z,67.76
2018-12-14T06:21:58.306Z,67.86
2018-12-14T06:22:58.383Z,67.79
2018-12-14T06:23:58.821Z,67.78
2018-12-14T06:24:58.587Z,67.89
2018-12-14T06:25:58.483Z,67.95
2018-12-14T06:26:58.368Z,68.01
2018-12-14T06:27:58.434Z,68.17
2018-12-14T06:28:58.479Z,68.24
2018-12-14T06:29:58.309Z,68.42
2018-12-14T06:30:58.407Z,68.19
2018-12-14T06:31:58.320Z,68.45
2018-12-14T06:32:58.366Z,68.83
2018-12-14T06:33:58.291Z,68.37
2018-12-14T06:34:58.353Z,67.85
2018-12-14T06:35:58.547Z,68.06
2018-12-14T06:36:58.246Z,68.34
2018-12-14T06:37:58.308Z,68.22
2018-12-14T06:38:58.328Z,68.12
2018-12-14T06:39:58.298Z,67.92
2018-12-14T06:40:58.551Z,67.23
2018-12-14T06:41:58.226Z,67.16
2018-12-14T06:42:58.319Z,67.37
2018-12-14T06:43:58.234Z,67.45
2018-12-14T06:44:58.229Z,67.61
2018-12-14T06:45:58.321Z,67.76
2018-12-14T06:46:58.233Z,67.67
2018-12-14T06:47:58.694Z,67.69
2018-12-14T06:48:58.276Z,67.75
2018-12-14T06:49:58.222Z,67.81
2018-12-14T06:50:58.282Z,67.71
2018-12-14T06:51:58.266Z,67.9
2018-12-14T06:52:58.252Z,68.07
2018-12-14T06:53:58.337Z,68.04
2018-12-14T06:54:58.207Z,67.59
2018-12-14T06:55:58.324Z,67.9
2018-12-14T06:56:58.411Z,67.96
2018-12-14T06:57:58.704Z,67.97
2018-12-14T06:58:58.497Z,68.05
2018-12-14T06:59:58.456Z,68.22
2018-12-14T07:00:58.507Z,68.36
2018-12-14T07:01:58.332Z,68.21
2018-12-14T07:02:58.273Z,68.29
2018-12-14T07:03:58.476Z,68.52
2018-12-14T07:04:58.415Z,68.43
2018-12-14T07:05:58.565Z,67.87
2018-12-14T07:07:04.391Z,67.69
2018-12-14T07:07:58.592Z,67.63
2018-12-14T07:08:58.324Z,67.84
2018-12-14T07:09:58.345Z,67.92
2018-12-14T07:10:58.268Z,67.98
2018-12-14T07:11:58.558Z,68.23
2018-12-14T07:12:58.286Z,67.79
2018-12-14T07:13:58.268Z,68.04
2018-12-14T07:14:58.440Z,68.22
2018-12-14T07:15:58.443Z,68.23
2018-12-14T07:16:58.483Z,68.27
2018-12-14T07:17:58.617Z,68.22
2018-12-14T07:18:58.596Z,67.8
2018-12-14T07:19:58.251Z,67.96
2018-12-14T07:20:58.476Z,67.99
2018-12-14T07:21:58.292Z,68
2018-12-14T07:22:58.629Z,68.23
2018-12-14T07:23:58.267Z,67.95
2018-12-14T07:24:58.329Z,67.98
2018-12-14T07:25:58.340Z,67.89
2018-12-14T07:26:58.312Z,68.12
2018-12-14T07:27:58.382Z,68.22
2018-12-14T07:28:58.173Z,68.36
2018-12-14T07:29:58.247Z,68.28
2018-12-14T07:30:58.220Z,68.39
2018-12-14T07:31:58.301Z,68.39
2018-12-14T07:32:58.421Z,68.57
2018-12-14T07:33:58.159Z,68.45
2018-12-14T07:34:58.404Z,68.51
2018-12-14T07:35:58.329Z,68.27
2018-12-14T07:36:58.175Z,68.15
2018-12-14T07:37:58.340Z,68.01
2018-12-14T07:38:58.327Z,67.99
2018-12-14T07:39:58.469Z,68.31
2018-12-14T07:40:58.179Z,68.61
2018-12-14T07:41:58.232Z,68.19
2018-12-14T07:42:58.871Z,68.22
2018-12-14T07:43:58.207Z,68.21
2018-12-14T07:44:58.725Z,68.21
2018-12-14T07:45:58.223Z,68.1
2018-12-14T07:46:58.332Z,68.09
2018-12-14T07:47:58.286Z,68.15
2018-12-14T07:48:58.432Z,68.27
2018-12-14T07:49:58.300Z,68.25
2018-12-14T07:50:58.313Z,68.41
2018-12-14T07:51:58.397Z,68.11
2018-12-14T07:52:58.152Z,68.06
2018-12-14T07:53:58.788Z,68.18
2018-12-14T07:54:58.391Z,68.27
2018-12-14T07:55:58.244Z,68.34
2018-12-14T07:56:58.814Z,68.41
2018-12-14T07:57:58.290Z,68.52
2018-12-14T07:58:58.275Z,68.46
2018-12-14T07:59:58.214Z,68.6
2018-12-14T08:00:58.188Z,68.29
2018-12-14T08:01:58.464Z,68.41
2018-12-14T08:02:58.174Z,68.44
2018-12-14T08:03:58.380Z,68.34
2018-12-14T08:04:58.127Z,68.47
2018-12-14T08:05:58.297Z,68.3
2018-12-14T08:06:58.693Z,68.56
2018-12-14T08:07:58.216Z,68.67
2018-12-14T08:08:58.282Z,68.54
2018-12-14T08:09:58.142Z,68.29
2018-12-14T08:10:58.313Z,68.23
2018-12-14T08:11:58.150Z,68.11
2018-12-14T08:12:58.256Z,68.25
2018-12-14T08:13:58.341Z,68.36
2018-12-14T08:14:58.288Z,68.39
2018-12-14T08:15:58.339Z,68.55
2018-12-14T08:16:58.145Z,68.35
2018-12-14T08:17:58.136Z,68.45
2018-12-14T08:18:58.181Z,68.36
2018-12-14T08:19:58.140Z,68.2
2018-12-14T08:20:58.203Z,68.21
2018-12-14T08:21:58.171Z,68.18
2018-12-14T08:22:58.127Z,68.22
2018-12-14T08:23:58.137Z,68.22
2018-12-14T08:24:58.097Z,68.26
2018-12-14T08:25:58.121Z,68.36
2018-12-14T08:26:58.097Z,68.27
2018-12-14T08:27:58.122Z,68.52
2018-12-14T08:28:58.114Z,68.31
2018-12-14T08:29:58.117Z,68.5
2018-12-14T08:30:58.276Z,68.32
2018-12-14T08:31:58.110Z,68.4
2018-12-14T08:32:58.193Z,68.43
2018-12-14T08:33:58.239Z,68.53
2018-12-14T08:34:58.116Z,68.38
2018-12-14T08:35:58.232Z,68.49
2018-12-14T08:36:58.130Z,68.64
2018-12-14T08:37:58.419Z,68.32
2018-12-14T08:38:58.295Z,68.5
2018-12-14T08:39:58.168Z,68.34
2018-12-14T08:40:58.226Z,68.17
2018-12-14T08:41:58.506Z,67.87
2018-12-14T08:42:58.146Z,67.76
2018-12-14T08:43:58.125Z,67.9
2018-12-14T08:44:58.312Z,68.2
2018-12-14T08:45:58.142Z,68.29
2018-12-14T08:46:58.567Z,67.87
2018-12-14T08:47:58.127Z,67.88
2018-12-14T08:48:58.629Z,67.89
2018-12-14T08:49:58.110Z,67.86
2018-12-14T08:50:58.112Z,67.75
2018-12-14T08:51:58.899Z,67.8
2018-12-14T08:52:58.130Z,67.97
2018-12-14T08:53:58.139Z,67.87
2018-12-14T08:54:58.123Z,68.21
2018-12-14T08:55:58.076Z,68.24
2018-12-14T08:56:58.195Z,68.3
2018-12-14T08:57:58.362Z,68.49
2018-12-14T08:58:58.246Z,68.47
2018-12-14T08:59:58.081Z,68.55
2018-12-14T09:00:58.286Z,67.8
2018-12-14T09:01:58.279Z,67.96
2018-12-14T09:02:58.112Z,68.08
2018-12-14T09:03:58.142Z,68.14
2018-12-14T09:04:58.571Z,68.22
2018-12-14T09:05:58.144Z,68.04
2018-12-14T09:06:58.069Z,67.95
2018-12-14T09:07:58.049Z,68.02
2018-12-14T09:08:58.284Z,67.98
2018-12-14T09:09:58.092Z,67.84
2018-12-14T09:10:58.165Z,67.95
2018-12-14T09:11:58.382Z,67.98
2018-12-14T09:12:58.079Z,68.01
2018-12-14T09:13:58.071Z,68.02
2018-12-14T09:14:58.283Z,68.29
2018-12-14T09:15:58.236Z,68.44
2018-12-14T09:16:58.115Z,68.43
2018-12-14T09:17:58.126Z,68.34
2018-12-14T09:18:58.280Z,68.52
2018-12-14T09:19:58.497Z,68.57
2018-12-14T09:21:01.463Z,68.73
2018-12-14T09:21:58.186Z,68.71
2018-12-14T09:22:58.177Z,68.96
2018-12-14T09:23:58.064Z,68.79
2018-12-14T09:24:58.050Z,68.66
2018-12-14T09:25:58.037Z,68.46
2018-12-14T09:26:58.118Z,68.75
2018-12-14T09:27:58.304Z,68.84
2018-12-14T09:28:58.495Z,68.73
2018-12-14T09:29:58.150Z,68.88
2018-12-14T09:30:58.229Z,68.82
2018-12-14T09:31:58.492Z,68.76
2018-12-14T09:32:58.315Z,68.8
2018-12-14T09:33:58.115Z,68.56
2018-12-14T09:34:58.355Z,68.63
2018-12-14T09:35:58.042Z,68.58
2018-12-14T09:36:58.142Z,68.56
2018-12-14T09:37:58.088Z,68.49
2018-12-14T09:38:58.353Z,68.35
2018-12-14T09:39:58.062Z,68.46
2018-12-14T09:40:58.309Z,68.69
2018-12-14T09:41:58.186Z,68.49
2018-12-14T09:42:58.080Z,68.48
2018-12-14T09:43:58.041Z,68.51
2018-12-14T09:44:58.102Z,68.55
2018-12-14T09:45:58.247Z,68.66
2018-12-14T09:46:58.118Z,68.62
2018-12-14T09:47:58.271Z,68.49
2018-12-14T09:48:58.065Z,68.51
2018-12-14T09:49:58.405Z,68.65
2018-12-14T09:50:58.069Z,68.38
2018-12-14T09:51:58.400Z,68.49
2018-12-14T09:52:58.259Z,68.65
2018-12-14T09:53:58.378Z,68.71
2018-12-14T09:54:58.081Z,68.82
2018-12-14T09:55:58.199Z,68.48
2018-12-14T09:56:58.115Z,68.52
2018-12-14T09:57:58.253Z,68.07
2018-12-14T09:58:58.592Z,68.15
2018-12-14T09:59:58.516Z,68.19
2018-12-14T10:00:58.176Z,67.98
2018-12-14T10:01:58.039Z,68.13
2018-12-14T10:02:58.154Z,68.15
2018-12-14T10:03:58.229Z,68.2
2018-12-14T10:04:58.186Z,68.06
2018-12-14T10:05:58.137Z,68.34
2018-12-14T10:06:58.509Z,68.62
2018-12-14T10:07:57.969Z,68.17
2018-12-14T10:08:58.071Z,68.27
2018-12-14T10:09:58.490Z,68.26
2018-12-14T10:10:58.096Z,68.28
2018-12-14T10:11:58.318Z,68.19
2018-12-14T10:12:58.382Z,68.42
2018-12-14T10:14:01.144Z,68.48
2018-12-14T10:14:58.168Z,68.43
2018-12-14T10:15:58.076Z,68.01
2018-12-14T10:16:58.251Z,68.2
2018-12-14T10:17:58.204Z,68.13
2018-12-14T10:18:58.232Z,68.21
2018-12-14T10:19:58.070Z,68.27
2018-12-14T10:20:58.145Z,68.11
2018-12-14T10:21:58.291Z,68.36
2018-12-14T10:22:58.533Z,68.24
2018-12-14T10:23:58.369Z,68.38
2018-12-14T10:24:58.466Z,68.37
2018-12-14T10:25:57.972Z,68.02
2018-12-14T10:26:58.084Z,68.24
2018-12-14T10:27:58.382Z,68.21
2018-12-14T10:28:58.962Z,68.11
2018-12-14T10:29:58.209Z,68.17
2018-12-14T10:30:58.365Z,68.64
2018-12-14T10:31:57.966Z,68.34
2018-12-14T10:32:58.337Z,68.23
2018-12-14T10:33:58.505Z,68.47
2018-12-14T10:34:58.345Z,68.68
2018-12-14T10:35:58.100Z,68.6
2018-12-14T10:36:58.077Z,68.83
2018-12-14T10:37:58.274Z,68.51
2018-12-14T10:38:57.968Z,68.53
2018-12-14T10:39:58.225Z,68.36
2018-12-14T10:40:58.075Z,68.24
2018-12-14T10:41:58.043Z,68.18
2018-12-14T10:42:57.950Z,68.18
2018-12-14T10:43:58.339Z,68.4
2018-12-14T10:44:58.083Z,68.47
2018-12-14T10:45:57.952Z,68.33
2018-12-14T10:46:57.960Z,68.43
2018-12-14T10:47:58.096Z,68.39
2018-12-14T10:48:57.951Z,68.51
2018-12-14T10:49:58.186Z,68.4
2018-12-14T10:50:58.058Z,68.08
2018-12-14T10:51:58.048Z,68
2018-12-14T10:52:57.952Z,68.17
2018-12-14T10:53:58.056Z,67.84
2018-12-14T10:54:58.133Z,67.96
2018-12-14T10:55:58.316Z,67.76
2018-12-14T10:56:58.007Z,67.79
2018-12-14T10:57:57.935Z,67.88
2018-12-14T10:58:58.064Z,67.91
2018-12-14T10:59:58.067Z,68.04
2018-12-14T11:00:58.164Z,67.97
2018-12-14T11:01:58.333Z,67.86
2018-12-14T11:02:58.109Z,67.77
2018-12-14T11:03:57.916Z,67.88
2018-12-14T11:04:58.036Z,68.03
2018-12-14T11:05:58.311Z,67.7
2018-12-14T11:06:57.964Z,67.81
2018-12-14T11:07:57.887Z,67.95
2018-12-14T11:08:58.265Z,67.62
2018-12-14T11:09:58.086Z,67.51
2018-12-14T11:10:58.312Z,67.64
2018-12-14T11:11:58.192Z,67.66
2018-12-14T11:12:57.678Z,67.68
2018-12-14T11:13:58.052Z,67.63
2018-12-14T11:14:58.364Z,67.79
2018-12-14T11:15:58.299Z,67.74
2018-12-14T11:16:58.697Z,67.77
2018-12-14T11:17:58.212Z,68.12
2018-12-14T11:18:58.258Z,67.77
2018-12-14T11:19:58.277Z,67.65
2018-12-14T11:20:57.992Z,67.73
2018-12-14T11:21:57.947Z,67.55
2018-12-14T11:22:57.979Z,67.71
2018-12-14T11:23:57.913Z,67.97
2018-12-14T11:24:58.234Z,67.68
2018-12-14T11:25:58.095Z,67.64
2018-12-14T11:26:57.879Z,67.71
2018-12-14T11:27:57.901Z,67.73
2018-12-14T11:28:58.106Z,67.76
2018-12-14T11:29:57.918Z,67.66
2018-12-14T11:30:58.097Z,67.55
2018-12-14T11:31:58.127Z,67.54
2018-12-14T11:32:58.002Z,67.64
2018-12-14T11:33:58.376Z,67.43
2018-12-14T11:34:58.058Z,67.57
2018-12-14T11:35:58.004Z,67.44
2018-12-14T11:36:58.092Z,67.67
2018-12-14T11:37:58.261Z,67.45
2018-12-14T11:38:57.989Z,67.45
2018-12-14T11:39:57.868Z,67.44
2018-12-14T11:40:57.857Z,67.32
2018-12-14T11:41:58.253Z,67.34
2018-12-14T11:42:58.077Z,67.59
2018-12-14T11:43:58.565Z,67.53
2018-12-14T11:44:58.034Z,67.31
2018-12-14T11:45:58.052Z,67.5
2018-12-14T11:46:58.449Z,67.29
2018-12-14T11:47:58.027Z,67.33
2018-12-14T11:48:58.175Z,67.16
2018-12-14T11:49:57.865Z,67.42
2018-12-14T11:50:57.858Z,67.45
2018-12-14T11:51:58.299Z,67.49
2018-12-14T11:52:58.118Z,67.88
2018-12-14T11:53:57.826Z,67.53
2018-12-14T11:54:58.110Z,67.22
2018-12-14T11:55:58.077Z,67.27
2018-12-14T11:56:58.024Z,67.47
2018-12-14T11:57:58.569Z,67.2
2018-12-14T11:58:58.130Z,67.4
2018-12-14T11:59:57.831Z,67.37
2018-12-14T12:00:58.488Z,67.49
2018-12-14T12:01:58.030Z,67.55
2018-12-14T12:02:58.078Z,67.48
2018-12-14T12:03:57.862Z,67.22
2018-12-14T12:04:58.131Z,67.48
2018-12-14T12:05:58.220Z,67.63
2018-12-14T12:06:58.030Z,67.87
2018-12-14T12:07:57.887Z,67.26
2018-12-14T12:08:58.066Z,67.11
2018-12-14T12:09:58.076Z,67.18
2018-12-14T12:10:57.877Z,67.26
2018-12-14T12:11:57.801Z,67.35
2018-12-14T12:12:58.078Z,67.41
2018-12-14T12:13:58.301Z,67.52
2018-12-14T12:14:57.799Z,67.32
2018-12-14T12:15:57.979Z,67.33
2018-12-14T12:16:57.882Z,67.03
2018-12-14T12:17:57.843Z,67.24
2018-12-14T12:18:57.831Z,67.27
2018-12-14T12:19:58.024Z,67.45
2018-12-14T12:20:58.125Z,67.49
2018-12-14T12:21:57.796Z,67.47
2018-12-14T12:22:57.853Z,67.54
2018-12-14T12:23:57.867Z,67.56
2018-12-14T12:24:57.806Z,67.54
2018-12-14T12:25:57.826Z,67.29
2018-12-14T12:26:58.018Z,67.48
2018-12-14T12:27:57.787Z,67.36
2018-12-14T12:28:57.817Z,67.4
2018-12-14T12:29:57.820Z,67.24
2018-12-14T12:30:57.878Z,67.31
2018-12-14T12:31:58.089Z,67.18
2018-12-14T12:32:57.805Z,67.24
2018-12-14T12:33:57.795Z,67.27
2018-12-14T12:34:57.768Z,67.55
2018-12-14T12:35:57.880Z,67.2
2018-12-14T12:36:57.835Z,67.13
2018-12-14T12:37:58.205Z,67.47
2018-12-14T12:38:57.812Z,67.46
2018-12-14T12:39:57.858Z,67.53
2018-12-14T12:40:58.016Z,67.5
2018-12-14T12:41:57.909Z,67.44
2018-12-14T12:42:57.928Z,67.3
2018-12-14T12:43:58.009Z,67.62
2018-12-14T12:44:58.033Z,67.61
2018-12-14T12:45:58.114Z,67.26
2018-12-14T12:46:58.228Z,67.27
2018-12-14T12:47:57.833Z,67.06
2018-12-14T12:48:58.004Z,67.11
2018-12-14T12:49:57.859Z,67.34
2018-12-14T12:51:03.599Z,67.24
2018-12-14T12:51:58.011Z,67.24
2018-12-14T12:52:57.860Z,67.25
2018-12-14T12:53:57.883Z,67.19
2018-12-14T12:54:57.768Z,67.16
2018-12-14T12:55:57.816Z,67.34